Time,TemperatureF,DewpointF,PressureIn,WindDirection,WindDirectionDegrees,WindSpeedMPH,WindSpeedGustMPH,Humidity,HourlyPrecipIn,Conditions,Clouds,dailyrainin,SoftwareType,DateUTC
2013-02-25 00:02:00,23.0,21.0,30.03,West,277,3.0,6.0,90,0.00,,,0.00,,2013-02-25 06:02:00,
2013-02-25 00:11:00,23.0,21.0,30.03,West,277,3.0,6.0,90,0.00,,,0.00,,2013-02-25 06:11:00,
2013-02-25 00:21:00,21.0,18.0,30.03,WSW,257,2.0,4.0,89,0.00,,,0.00,,2013-02-25 06:21:00,
2013-02-25 00:32:00,20.0,18.0,30.03,WSW,241,1.0,2.0,91,0.00,,,0.00,,2013-02-25 06:32:00,
2013-02-25 00:42:00,20.0,18.0,30.03,WSW,241,1.0,2.0,91,0.00,,,0.00,,2013-02-25 06:42:00,
2013-02-25 00:51:00,17.0,15.0,30.03,SW,225,2.0,4.0,91,0.00,,,0.00,,2013-02-25 06:51:00,
2013-02-25 01:01:00,16.0,14.0,30.03,SW,228,2.0,4.0,91,0.00,,,0.00,,2013-02-25 07:01:00,
2013-02-25 01:11:00,16.0,14.0,30.03,WSW,250,3.0,5.0,93,0.00,,,0.00,,2013-02-25 07:11:00,
2013-02-25 01:21:00,16.0,14.0,30.03,WSW,250,3.0,5.0,93,0.00,,,0.00,,2013-02-25 07:21:00,
2013-02-25 01:31:00,15.0,13.0,30.03,WSW,249,1.0,4.0,91,0.00,,,0.00,,2013-02-25 07:31:00,
2013-02-25 01:41:00,15.0,13.0,30.03,WSW,249,1.0,4.0,91,0.00,,,0.00,,2013-02-25 07:41:00,
2013-02-25 01:51:00,13.0,11.0,30.03,SW,215,2.0,4.0,91,0.00,,,0.00,,2013-02-25 07:51:00,
2013-02-25 02:01:00,13.0,11.0,30.04,SW,227,2.0,4.0,91,0.00,,,0.00,,2013-02-25 08:01:00,
2013-02-25 02:11:00,13.0,11.0,30.04,SW,227,2.0,4.0,91,0.00,,,0.00,,2013-02-25 08:11:00,
2013-02-25 02:21:00,12.0,10.0,30.04,WSW,239,2.0,4.0,90,0.00,,,0.00,,2013-02-25 08:21:00,
2013-02-25 02:32:00,10.0,7.0,30.04,SW,215,2.0,3.0,89,0.00,,,0.00,,2013-02-25 08:32:00,
2013-02-25 02:41:00,10.0,7.0,30.04,SW,215,2.0,3.0,89,0.00,,,0.00,,2013-02-25 08:41:00,
2013-02-25 02:52:00,9.0,6.0,30.04,SSW,210,2.0,3.0,89,0.00,,,0.00,,2013-02-25 08:52:00,
2013-02-25 03:01:00,9.0,7.0,30.04,WSW,250,2.0,3.0,92,0.00,,,0.00,,2013-02-25 09:01:00,
2013-02-25 03:12:00,9.0,7.0,30.04,WSW,250,2.0,3.0,92,0.00,,,0.00,,2013-02-25 09:12:00,
2013-02-25 03:21:00,8.0,5.0,30.04,SSW,197,1.0,2.0,89,0.00,,,0.00,,2013-02-25 09:21:00,
2013-02-25 03:32:00,7.0,4.0,30.04,SW,229,0.0,1.0,89,0.00,,,0.00,,2013-02-25 09:32:00,
2013-02-25 03:42:00,7.0,4.0,30.04,SW,229,0.0,1.0,89,0.00,,,0.00,,2013-02-25 09:42:00,
2013-02-25 03:51:00,9.0,7.0,30.04,SW,235,1.0,3.0,93,0.00,,,0.00,,2013-02-25 09:51:00,
2013-02-25 04:01:00,7.0,5.0,30.03,SW,218,1.0,2.0,90,0.00,,,0.00,,2013-02-25 10:01:00,
2013-02-25 04:11:00,7.0,5.0,30.03,SW,218,1.0,2.0,90,0.00,,,0.00,,2013-02-25 10:11:00,
2013-02-25 04:21:00,5.0,2.0,30.04,SSW,197,1.0,3.0,89,0.00,,,0.00,,2013-02-25 10:21:00,
2013-02-25 04:32:00,7.0,5.0,30.04,SW,215,2.0,3.0,93,0.00,,,0.00,,2013-02-25 10:32:00,
2013-02-25 04:42:00,7.0,5.0,30.04,SW,215,2.0,3.0,93,0.00,,,0.00,,2013-02-25 10:42:00,
2013-02-25 04:52:00,9.0,7.0,30.04,SW,232,2.0,6.0,92,0.00,,,0.00,,2013-02-25 10:52:00,
2013-02-25 05:01:00,6.0,4.0,30.04,SW,219,1.0,4.0,90,0.00,,,0.00,,2013-02-25 11:01:00,
2013-02-25 05:11:00,6.0,4.0,30.04,SW,219,1.0,4.0,90,0.00,,,0.00,,2013-02-25 11:11:00,
2013-02-25 05:21:00,7.0,5.0,30.04,SSW,208,2.0,3.0,92,0.00,,,0.00,,2013-02-25 11:21:00,
2013-02-25 05:32:00,8.0,6.0,30.03,WSW,253,0.0,3.0,91,0.00,,,0.00,,2013-02-25 11:32:00,
2013-02-25 05:42:00,8.0,6.0,30.03,WSW,253,0.0,3.0,91,0.00,,,0.00,,2013-02-25 11:42:00,
2013-02-25 05:52:00,5.0,2.0,30.03,SW,218,1.0,2.0,89,0.00,,,0.00,,2013-02-25 11:52:00,
2013-02-25 06:02:00,6.0,3.0,30.04,SW,219,1.0,2.0,89,0.00,,,0.00,,2013-02-25 12:02:00,
2013-02-25 06:11:00,6.0,3.0,30.04,SW,219,1.0,2.0,89,0.00,,,0.00,,2013-02-25 12:11:00,
2013-02-25 06:21:00,4.0,2.0,30.04,SW,229,0.0,2.0,89,0.00,,,0.00,,2013-02-25 12:21:00,
2013-02-25 06:32:00,4.0,2.0,30.04,WSW,252,0.0,1.0,89,0.00,,,0.00,,2013-02-25 12:32:00,
2013-02-25 06:42:00,4.0,2.0,30.04,WSW,252,0.0,1.0,89,0.00,,,0.00,,2013-02-25 12:42:00,
2013-02-25 06:53:00,7.0,5.0,30.04,West,277,2.0,3.0,93,0.00,,,0.00,,2013-02-25 12:53:00,
2013-02-25 07:02:00,8.0,6.0,30.05,WNW,285,2.0,3.0,91,0.00,,,0.00,,2013-02-25 13:02:00,
2013-02-25 07:12:00,8.0,6.0,30.05,WNW,285,2.0,3.0,91,0.00,,,0.00,,2013-02-25 13:12:00,
2013-02-25 07:22:00,8.0,6.0,30.05,West,276,2.0,4.0,91,0.00,,,0.00,,2013-02-25 13:22:00,
2013-02-25 07:32:00,7.0,4.0,30.05,SW,215,2.0,3.0,88,0.00,,,0.00,,2013-02-25 13:32:00,
2013-02-25 07:42:00,7.0,4.0,30.05,SW,215,2.0,3.0,88,0.00,,,0.00,,2013-02-25 13:42:00,
2013-02-25 07:52:00,5.0,3.0,30.05,SW,215,2.0,3.0,92,0.00,,,0.00,,2013-02-25 13:52:00,
2013-02-25 08:03:00,8.0,6.0,30.05,SW,222,1.0,3.0,91,0.00,,,0.00,,2013-02-25 14:03:00,
2013-02-25 08:17:00,8.0,6.0,30.05,SW,222,1.0,3.0,91,0.00,,,0.00,,2013-02-25 14:17:00,
2013-02-25 08:32:00,8.0,6.0,30.04,SW,236,1.0,3.0,91,0.00,,,0.00,,2013-02-25 14:32:00,
2013-02-25 08:42:00,8.0,6.0,30.04,SW,236,1.0,3.0,91,0.00,,,0.00,,2013-02-25 14:42:00,
2013-02-25 08:52:00,7.0,5.0,30.05,SW,219,2.0,3.0,90,0.00,,,0.00,,2013-02-25 14:52:00,
2013-02-25 09:02:00,9.0,7.0,30.05,SW,215,1.0,3.0,91,0.00,,,0.00,,2013-02-25 15:02:00,
2013-02-25 09:11:00,9.0,7.0,30.05,SW,215,1.0,3.0,91,0.00,,,0.00,,2013-02-25 15:11:00,
2013-02-25 09:21:00,10.0,8.0,30.05,SW,219,1.0,2.0,90,0.00,,,0.00,,2013-02-25 15:21:00,
2013-02-25 09:32:00,12.0,10.0,30.05,SSW,194,1.0,3.0,90,0.00,,,0.00,,2013-02-25 15:32:00,
2013-02-25 09:41:00,12.0,10.0,30.05,SSW,194,1.0,3.0,90,0.00,,,0.00,,2013-02-25 15:41:00,
2013-02-25 09:51:00,14.0,12.0,30.04,SE,135,0.0,2.0,90,0.00,,,0.00,,2013-02-25 15:51:00,
2013-02-25 10:02:00,15.0,12.0,30.04,South,184,3.0,4.0,88,0.00,,,0.00,,2013-02-25 16:02:00,
2013-02-25 10:12:00,15.0,12.0,30.04,South,184,3.0,4.0,88,0.00,,,0.00,,2013-02-25 16:12:00,
2013-02-25 10:21:00,17.0,14.0,30.04,SSW,203,1.0,3.0,86,0.00,,,0.00,,2013-02-25 16:21:00,
2013-02-25 10:32:00,18.0,13.0,30.04,SSE,159,2.0,3.0,82,0.00,,,0.00,,2013-02-25 16:32:00,
2013-02-25 10:42:00,18.0,13.0,30.04,SSE,159,2.0,3.0,82,0.00,,,0.00,,2013-02-25 16:42:00,
2013-02-25 10:51:00,20.0,15.0,30.04,SSE,150,2.0,5.0,80,0.00,,,0.00,,2013-02-25 16:51:00,
2013-02-25 11:01:00,21.0,16.0,30.04,SSE,167,2.0,7.0,79,0.00,,,0.00,,2013-02-25 17:01:00,
2013-02-25 11:11:00,21.0,16.0,30.04,SSE,167,2.0,7.0,79,0.00,,,0.00,,2013-02-25 17:11:00,
2013-02-25 11:21:00,21.0,15.0,30.04,South,176,2.0,6.0,78,0.00,,,0.00,,2013-02-25 17:21:00,
2013-02-25 11:32:00,21.0,16.0,30.04,South,177,2.0,7.0,80,0.00,,,0.00,,2013-02-25 17:32:00,
2013-02-25 11:42:00,21.0,16.0,30.04,South,177,2.0,7.0,80,0.00,,,0.00,,2013-02-25 17:42:00,
2013-02-25 11:52:00,22.0,16.0,30.03,South,173,4.0,9.0,77,0.00,,,0.00,,2013-02-25 17:52:00,
2013-02-25 12:01:00,23.0,17.0,30.03,SSE,162,4.0,8.0,78,0.00,,,0.00,,2013-02-25 18:01:00,
2013-02-25 12:12:00,23.0,17.0,30.03,SSE,162,4.0,8.0,78,0.00,,,0.00,,2013-02-25 18:12:00,
2013-02-25 12:21:00,24.0,19.0,30.02,SSE,157,5.0,7.0,80,0.00,,,0.00,,2013-02-25 18:21:00,
2013-02-25 12:32:00,25.0,20.0,30.02,SSE,148,4.0,6.0,80,0.00,,,0.00,,2013-02-25 18:32:00,
2013-02-25 12:42:00,25.0,20.0,30.02,SSE,148,4.0,6.0,80,0.00,,,0.00,,2013-02-25 18:42:00,
2013-02-25 12:51:00,25.0,19.0,30.01,SSE,148,4.0,7.0,79,0.00,,,0.00,,2013-02-25 18:51:00,
2013-02-25 13:01:00,26.0,21.0,30.01,SE,145,3.0,6.0,80,0.00,,,0.00,,2013-02-25 19:01:00,
2013-02-25 13:11:00,26.0,21.0,30.01,SE,145,3.0,6.0,80,0.00,,,0.00,,2013-02-25 19:11:00,
2013-02-25 13:21:00,28.0,21.0,29.99,SSE,168,5.0,9.0,76,0.00,,,0.00,,2013-02-25 19:21:00,
2013-02-25 13:32:00,27.0,20.0,29.99,SSW,197,7.0,11.0,76,0.00,,,0.00,,2013-02-25 19:32:00,
2013-02-25 13:42:00,27.0,20.0,29.99,SSW,197,7.0,11.0,76,0.00,,,0.00,,2013-02-25 19:42:00,
2013-02-25 13:52:00,28.0,22.0,29.98,SSE,158,4.0,11.0,78,0.00,,,0.00,,2013-02-25 19:52:00,
2013-02-25 14:01:00,29.0,22.0,29.98,SSE,155,2.0,8.0,76,0.00,,,0.00,,2013-02-25 20:01:00,
2013-02-25 14:11:00,29.0,22.0,29.98,SSE,155,2.0,8.0,76,0.00,,,0.00,,2013-02-25 20:11:00,
2013-02-25 14:21:00,30.0,23.0,29.98,SSE,149,6.0,10.0,75,0.00,,,0.00,,2013-02-25 20:21:00,
2013-02-25 14:32:00,30.0,23.0,29.97,South,181,7.0,13.0,74,0.00,,,0.00,,2013-02-25 20:32:00,
2013-02-25 14:42:00,30.0,23.0,29.97,South,181,7.0,13.0,74,0.00,,,0.00,,2013-02-25 20:42:00,
2013-02-25 14:52:00,30.0,23.0,29.97,SE,136,3.0,12.0,76,0.00,,,0.00,,2013-02-25 20:52:00,
2013-02-25 15:01:00,30.0,23.0,29.97,SE,145,5.0,7.0,76,0.00,,,0.00,,2013-02-25 21:01:00,
2013-02-25 15:11:00,30.0,23.0,29.97,SE,145,5.0,7.0,76,0.00,,,0.00,,2013-02-25 21:11:00,
2013-02-25 15:21:00,30.0,24.0,29.97,South,180,5.0,8.0,77,0.00,,,0.00,,2013-02-25 21:21:00,
2013-02-25 15:32:00,29.0,23.0,29.97,SE,142,4.0,9.0,78,0.00,,,0.00,,2013-02-25 21:32:00,
2013-02-25 15:42:00,29.0,23.0,29.97,SE,142,4.0,9.0,78,0.00,,,0.00,,2013-02-25 21:42:00,
2013-02-25 15:51:00,29.0,23.0,29.96,South,184,2.0,7.0,78,0.00,,,0.00,,2013-02-25 21:51:00,
2013-02-25 16:01:00,29.0,23.0,29.96,South,184,2.0,7.0,78,0.00,,,0.00,,2013-02-25 22:01:00,
2013-02-25 16:11:00,29.0,23.0,29.96,South,184,2.0,7.0,78,0.00,,,0.00,,2013-02-25 22:11:00,
2013-02-25 16:21:00,29.0,23.0,29.96,SSE,161,6.0,11.0,78,0.00,,,0.00,,2013-02-25 22:21:00,
2013-02-25 16:32:00,28.0,22.0,29.96,SSW,197,3.0,7.0,79,0.00,,,0.00,,2013-02-25 22:32:00,
2013-02-25 16:42:00,28.0,22.0,29.96,SSW,197,3.0,7.0,79,0.00,,,0.00,,2013-02-25 22:42:00,
2013-02-25 16:51:00,28.0,22.0,29.96,South,188,6.0,14.0,78,0.00,,,0.00,,2013-02-25 22:51:00,
2013-02-25 17:01:00,28.0,22.0,29.96,South,188,6.0,14.0,78,0.00,,,0.00,,2013-02-25 23:01:00,
2013-02-25 17:11:00,28.0,22.0,29.96,South,188,6.0,14.0,78,0.00,,,0.00,,2013-02-25 23:11:00,
2013-02-25 17:22:00,28.0,22.0,29.96,South,172,5.0,10.0,79,0.00,,,0.00,,2013-02-25 23:22:00,
2013-02-25 17:32:00,27.0,21.0,29.96,SSE,155,7.0,13.0,79,0.00,,,0.00,,2013-02-25 23:32:00,
2013-02-25 17:42:00,27.0,21.0,29.96,SSE,155,7.0,13.0,79,0.00,,,0.00,,2013-02-25 23:42:00,
2013-02-25 17:52:00,26.0,21.0,29.96,SSE,155,4.0,12.0,81,0.00,,,0.00,,2013-02-25 23:52:00,
2013-02-25 18:01:00,26.0,21.0,29.97,South,181,3.0,12.0,81,0.00,,,0.00,,2013-02-26 00:01:00,
2013-02-25 18:12:00,26.0,21.0,29.97,South,181,3.0,12.0,81,0.00,,,0.00,,2013-02-26 00:12:00,
2013-02-25 18:22:00,24.0,20.0,29.97,South,176,8.0,16.0,83,0.00,,,0.00,,2013-02-26 00:22:00,
2013-02-25 18:32:00,22.0,18.0,29.97,SSE,159,8.0,15.0,85,0.00,,,0.00,,2013-02-26 00:32:00,
2013-02-25 18:42:00,22.0,18.0,29.97,SSE,159,8.0,15.0,85,0.00,,,0.00,,2013-02-26 00:42:00,
2013-02-25 18:51:00,22.0,18.0,29.97,South,184,7.0,13.0,86,0.00,,,0.00,,2013-02-26 00:51:00,
2013-02-25 19:02:00,21.0,17.0,29.97,SSW,198,6.0,13.0,86,0.00,,,0.00,,2013-02-26 01:02:00,
2013-02-25 19:11:00,21.0,17.0,29.97,SSW,198,6.0,13.0,86,0.00,,,0.00,,2013-02-26 01:11:00,
2013-02-25 19:21:00,21.0,18.0,29.97,SSE,149,8.0,14.0,87,0.00,,,0.00,,2013-02-26 01:21:00,
2013-02-25 19:32:00,20.0,17.0,29.97,SSE,163,6.0,16.0,87,0.00,,,0.00,,2013-02-26 01:32:00,
2013-02-25 19:42:00,20.0,17.0,29.97,SSE,163,6.0,16.0,87,0.00,,,0.00,,2013-02-26 01:42:00,
2013-02-25 19:51:00,20.0,17.0,29.97,SSE,163,6.0,16.0,87,0.00,,,0.00,,2013-02-26 01:51:00,
2013-02-25 20:01:00,20.0,17.0,29.98,South,191,7.0,14.0,87,0.00,,,0.00,,2013-02-26 02:01:00,
2013-02-25 20:11:00,20.0,17.0,29.98,South,191,7.0,14.0,87,0.00,,,0.00,,2013-02-26 02:11:00,
2013-02-25 20:21:00,20.0,17.0,29.98,SSW,193,8.0,15.0,87,0.00,,,0.00,,2013-02-26 02:21:00,
2013-02-25 20:32:00,20.0,17.0,29.97,SSW,203,9.0,17.0,87,0.00,,,0.00,,2013-02-26 02:32:00,
2013-02-25 20:42:00,20.0,17.0,29.97,SSW,203,9.0,17.0,87,0.00,,,0.00,,2013-02-26 02:42:00,
2013-02-25 20:52:00,20.0,17.0,29.97,South,173,9.0,16.0,87,0.00,,,0.00,,2013-02-26 02:52:00,
2013-02-25 21:02:00,20.0,17.0,29.97,South,173,9.0,16.0,87,0.00,,,0.00,,2013-02-26 03:02:00,
2013-02-25 21:11:00,20.0,17.0,29.97,South,173,9.0,16.0,87,0.00,,,0.00,,2013-02-26 03:11:00,
2013-02-25 21:21:00,19.0,16.0,29.97,SE,129,7.0,15.0,88,0.00,,,0.00,,2013-02-26 03:21:00,
2013-02-25 21:32:00,18.0,15.0,29.97,SSE,162,9.0,14.0,89,0.00,,,0.00,,2013-02-26 03:32:00,
2013-02-25 21:42:00,18.0,15.0,29.97,SSE,162,9.0,14.0,89,0.00,,,0.00,,2013-02-26 03:42:00,
2013-02-25 21:52:00,18.0,15.0,29.97,SSW,199,8.0,13.0,89,0.00,,,0.00,,2013-02-26 03:52:00,
2013-02-25 22:01:00,17.0,15.0,29.97,SSE,163,8.0,13.0,90,0.00,,,0.00,,2013-02-26 04:01:00,
2013-02-25 22:11:00,17.0,15.0,29.97,SSE,163,8.0,13.0,90,0.00,,,0.00,,2013-02-26 04:11:00,
2013-02-25 22:21:00,17.0,15.0,29.97,SSW,208,6.0,16.0,90,0.00,,,0.00,,2013-02-26 04:21:00,
2013-02-25 22:32:00,17.0,15.0,29.97,SSW,208,6.0,16.0,90,0.00,,,0.00,,2013-02-26 04:32:00,
2013-02-25 22:42:00,17.0,15.0,29.97,SSW,208,6.0,16.0,90,0.00,,,0.00,,2013-02-26 04:42:00,
2013-02-25 22:51:00,16.0,14.0,29.97,South,170,8.0,17.0,91,0.00,,,0.00,,2013-02-26 04:51:00,
2013-02-25 23:01:00,16.0,14.0,29.97,South,174,7.0,13.0,91,0.00,,,0.00,,2013-02-26 05:01:00,
2013-02-25 23:12:00,16.0,14.0,29.97,South,174,7.0,13.0,91,0.00,,,0.00,,2013-02-26 05:12:00,
2013-02-25 23:21:00,16.0,14.0,29.97,SSE,163,7.0,12.0,92,0.00,,,0.00,,2013-02-26 05:21:00,
2013-02-25 23:32:00,16.0,14.0,29.97,SSE,162,7.0,14.0,92,0.00,,,0.00,,2013-02-26 05:32:00,
2013-02-25 23:43:00,16.0,14.0,29.97,SSE,162,7.0,14.0,92,0.00,,,0.00,,2013-02-26 05:43:00,
2013-02-25 23:52:00,16.0,14.0,29.97,South,187,9.0,14.0,91,0.00,,,0.00,,2013-02-26 05:52:00,